CheckWX is a tool to help pilots better visualize weather data.  It is not intended as a substitute for an official pre-flight weather briefing.

17:58:42 UTC

FYKT TAF
Keetmanshoop Airport
Keetmanshoop, Namibia
TAF FYKT 171600Z 1718/1818 33008KT CAVOK BECMG 1719/1721 21011KT

Feb-17@
18:00 UTC

Feb-17 @ 18:00 UTC

Feb-17@
19:00 UTC

Feb-17 @ 19:00 UTC

TAF FYKT 171600Z 1718/1818 33008KT CAVOK
Wind
  • 330° at 8 KTS
Visibility
10,000+ meters
Conditions
No significant weather
Cloud Levels
  • No significant clouds

Feb-17@
19:00 UTC

Feb-17 @ 19:00 UTC

Feb-18@
18:00 UTC

Feb-18 @ 18:00 UTC

BECMG 1719/1721 21011KT

Becoming

BecomingConditions expected by Sun, Feb 17, 2019 @ 21:00 UTC

Wind
  • 210° at 11 KTS
Visibility
10,000+ meters
Conditions
No significant weather
Cloud Levels
  • No significant clouds